createdAt,value
2024-03-12T00:00:52.195Z,617.00
2024-03-12T00:01:52.361Z,619.00
2024-03-12T00:02:52.232Z,620.00
2024-03-12T00:03:52.621Z,621.00
2024-03-12T00:04:52.344Z,624.00
2024-03-12T00:05:52.416Z,624.00
2024-03-12T00:06:52.510Z,620.00
2024-03-12T00:07:52.524Z,619.00
2024-03-12T00:08:52.605Z,616.00
2024-03-12T00:09:52.676Z,614.00
2024-03-12T00:10:52.722Z,615.00
2024-03-12T00:11:52.716Z,614.00
2024-03-12T00:12:52.898Z,612.00
2024-03-12T00:13:52.844Z,610.00
2024-03-12T00:14:52.921Z,612.00
2024-03-12T00:15:53.065Z,615.00
2024-03-12T00:16:53.008Z,615.00
2024-03-12T00:17:53.098Z,615.00
2024-03-12T00:18:53.213Z,611.00
2024-03-12T00:19:53.177Z,612.00
2024-03-12T00:20:53.212Z,613.00
2024-03-12T00:21:53.361Z,606.00
2024-03-12T00:22:53.365Z,607.00
2024-03-12T00:23:53.614Z,605.00
2024-03-12T00:24:53.514Z,605.00
2024-03-12T00:25:53.515Z,606.00
2024-03-12T00:26:53.604Z,606.00
2024-03-12T00:27:53.639Z,606.00
2024-03-12T00:28:53.659Z,609.00
2024-03-12T00:29:53.724Z,607.00
2024-03-12T00:30:53.827Z,605.00
2024-03-12T00:31:53.826Z,606.00
2024-03-12T00:32:53.881Z,604.00
2024-03-12T00:33:53.995Z,605.00
2024-03-12T00:34:54.009Z,609.00
2024-03-12T00:35:54.086Z,604.00
2024-03-12T00:36:54.192Z,603.00
2024-03-12T00:37:54.184Z,602.00
2024-03-12T00:38:54.594Z,603.00
2024-03-12T00:39:54.285Z,607.00
2024-03-12T00:40:54.363Z,607.00
2024-03-12T00:41:54.375Z,609.00
2024-03-12T00:42:54.481Z,606.00
2024-03-12T00:43:54.518Z,605.00
2024-03-12T00:44:54.563Z,605.00
2024-03-12T00:45:54.811Z,608.00
2024-03-12T00:46:54.683Z,605.00
2024-03-12T00:47:54.852Z,603.00
2024-03-12T00:48:55.151Z,601.00
2024-03-12T00:49:57.848Z,604.00
2024-03-12T00:50:54.885Z,606.00
2024-03-12T00:51:54.902Z,604.00
2024-03-12T00:52:54.837Z,604.00
2024-03-12T00:53:54.860Z,605.00
2024-03-12T00:54:54.898Z,600.00
2024-03-12T00:55:54.867Z,599.00
2024-03-12T00:56:54.840Z,599.00
2024-03-12T00:57:54.871Z,600.00
2024-03-12T00:58:54.864Z,601.00
2024-03-12T00:59:54.852Z,600.00
2024-03-12T01:00:55.270Z,600.00
2024-03-12T01:01:54.880Z,600.00
2024-03-12T01:02:54.862Z,600.00
2024-03-12T01:03:54.932Z,603.00
2024-03-12T01:04:54.891Z,606.00
2024-03-12T01:05:54.869Z,605.00
2024-03-12T01:06:54.891Z,599.00
2024-03-12T01:07:54.862Z,599.00
2024-03-12T01:08:54.852Z,596.00
2024-03-12T01:09:55.057Z,594.00
2024-03-12T01:10:54.996Z,592.00
2024-03-12T01:11:55.029Z,591.00
2024-03-12T01:12:55.157Z,590.00
2024-03-12T01:13:55.150Z,590.00
2024-03-12T01:14:55.219Z,591.00
2024-03-12T01:15:55.505Z,592.00
2024-03-12T01:16:55.385Z,596.00
2024-03-12T01:17:55.545Z,595.00
2024-03-12T01:18:55.525Z,593.00
2024-03-12T01:19:55.509Z,592.00
2024-03-12T01:20:55.609Z,593.00
2024-03-12T01:21:55.724Z,595.00
2024-03-12T01:22:56.126Z,596.00
2024-03-12T01:23:55.829Z,596.00
2024-03-12T01:24:55.843Z,596.00
2024-03-12T01:25:55.906Z,597.00
2024-03-12T01:26:55.936Z,597.00
2024-03-12T01:27:56.055Z,598.00
2024-03-12T01:28:56.057Z,597.00
2024-03-12T01:29:56.117Z,599.00
2024-03-12T01:30:56.275Z,600.00
2024-03-12T01:31:56.246Z,599.00
2024-03-12T01:32:56.657Z,597.00
2024-03-12T01:33:56.393Z,597.00
2024-03-12T01:34:56.425Z,600.00
2024-03-12T01:35:56.515Z,598.00
2024-03-12T01:36:56.674Z,596.00
2024-03-12T01:37:56.621Z,595.00
2024-03-12T01:38:56.702Z,593.00
2024-03-12T01:39:56.785Z,594.00
2024-03-12T01:40:56.819Z,598.00
2024-03-12T01:41:56.860Z,598.00
2024-03-12T01:42:56.964Z,595.00
2024-03-12T01:43:57.004Z,592.00
2024-03-12T01:44:57.030Z,591.00
2024-03-12T01:45:57.163Z,589.00
2024-03-12T01:46:57.170Z,586.00
2024-03-12T01:47:57.246Z,585.00
2024-03-12T01:48:57.315Z,587.00
2024-03-12T01:49:57.351Z,587.00
2024-03-12T01:50:57.429Z,586.00
2024-03-12T01:51:57.490Z,587.00
2024-03-12T01:52:57.536Z,585.00
2024-03-12T01:53:57.664Z,585.00
2024-03-12T01:54:57.714Z,587.00
2024-03-12T01:55:57.731Z,587.00
2024-03-12T01:56:57.788Z,587.00
2024-03-12T01:57:57.899Z,587.00
2024-03-12T01:58:58.143Z,588.00
2024-03-12T01:59:57.987Z,587.00
2024-03-12T02:00:58.084Z,585.00
2024-03-12T02:01:58.172Z,585.00
2024-03-12T02:02:58.169Z,585.00
2024-03-12T02:03:58.677Z,586.00
2024-03-12T02:04:58.277Z,587.00
2024-03-12T02:05:58.332Z,588.00
2024-03-12T02:06:58.501Z,585.00
2024-03-12T02:07:58.445Z,582.00
2024-03-12T02:08:58.648Z,581.00
2024-03-12T02:09:58.721Z,582.00
2024-03-12T02:10:58.743Z,583.00
2024-03-12T02:11:58.743Z,582.00
2024-03-12T02:12:58.879Z,581.00
2024-03-12T02:13:58.822Z,582.00
2024-03-12T02:14:58.925Z,583.00
2024-03-12T02:15:59.037Z,583.00
2024-03-12T02:16:59.008Z,581.00
2024-03-12T02:17:59.145Z,581.00
2024-03-12T02:18:59.729Z,581.00
2024-03-12T02:19:59.232Z,583.00
2024-03-12T02:20:59.296Z,585.00
2024-03-12T02:21:59.427Z,584.00
2024-03-12T02:22:59.404Z,585.00
2024-03-12T02:23:59.649Z,581.00
2024-03-12T02:24:59.689Z,581.00
2024-03-12T02:25:59.595Z,579.00
2024-03-12T02:26:59.677Z,577.00
2024-03-12T02:27:59.824Z,574.00
2024-03-12T02:29:00.170Z,575.00
2024-03-12T02:29:59.911Z,575.00
2024-03-12T02:31:00.071Z,575.00
2024-03-12T02:32:00.018Z,577.00
2024-03-12T02:33:00.085Z,578.00
2024-03-12T02:34:00.228Z,577.00
2024-03-12T02:35:00.233Z,578.00
2024-03-12T02:36:00.239Z,576.00
2024-03-12T02:37:00.423Z,576.00
2024-03-12T02:38:00.419Z,574.00
2024-03-12T02:39:00.474Z,572.00
2024-03-12T02:40:00.626Z,571.00
2024-03-12T02:41:00.588Z,571.00
2024-03-12T02:42:00.652Z,574.00
2024-03-12T02:43:00.764Z,571.00
2024-03-12T02:44:01.669Z,570.00
2024-03-12T02:45:00.845Z,569.00
2024-03-12T02:46:01.015Z,568.00
2024-03-12T02:47:01.001Z,569.00
2024-03-12T02:48:01.126Z,569.00
2024-03-12T02:49:01.230Z,570.00
2024-03-12T02:50:01.174Z,569.00
2024-03-12T02:51:01.231Z,568.00
2024-03-12T02:52:01.441Z,568.00
2024-03-12T02:53:01.368Z,570.00
2024-03-12T02:54:01.651Z,572.00
2024-03-12T02:55:01.580Z,573.00
2024-03-12T02:56:01.585Z,573.00
2024-03-12T02:57:01.654Z,572.00
2024-03-12T02:58:01.727Z,571.00
2024-03-12T02:59:02.164Z,568.00
2024-03-12T03:00:01.864Z,568.00
2024-03-12T03:01:02.059Z,567.00
2024-03-12T03:02:02.036Z,566.00
2024-03-12T03:03:02.031Z,569.00
2024-03-12T03:04:02.278Z,567.00
2024-03-12T03:05:02.153Z,565.00
2024-03-12T03:06:02.207Z,566.00
2024-03-12T03:07:02.472Z,566.00
2024-03-12T03:08:02.354Z,568.00
2024-03-12T03:09:02.431Z,567.00
2024-03-12T03:10:02.767Z,567.00
2024-03-12T03:11:02.632Z,568.00
2024-03-12T03:12:02.573Z,567.00
2024-03-12T03:13:02.735Z,567.00
2024-03-12T03:14:02.747Z,567.00
2024-03-12T03:15:02.813Z,566.00
2024-03-12T03:16:02.950Z,566.00
2024-03-12T03:17:02.911Z,565.00
2024-03-12T03:18:03.121Z,564.00
2024-03-12T03:19:03.162Z,563.00
2024-03-12T03:20:03.128Z,561.00
2024-03-12T03:21:03.145Z,561.00
2024-03-12T03:22:03.295Z,559.00
2024-03-12T03:23:03.331Z,560.00
2024-03-12T03:24:03.674Z,560.00
2024-03-12T03:25:03.565Z,561.00
2024-03-12T03:26:03.534Z,559.00
2024-03-12T03:27:03.582Z,559.00
2024-03-12T03:28:03.718Z,561.00
2024-03-12T03:29:04.182Z,560.00
2024-03-12T03:30:03.768Z,559.00
2024-03-12T03:31:03.879Z,555.00
2024-03-12T03:32:03.952Z,553.00
2024-03-12T03:33:04.064Z,556.00
2024-03-12T03:34:04.267Z,554.00
2024-03-12T03:35:04.071Z,554.00
2024-03-12T03:36:04.105Z,556.00
2024-03-12T03:37:04.383Z,554.00
2024-03-12T03:38:04.278Z,554.00
2024-03-12T03:39:04.681Z,551.00
2024-03-12T03:40:04.441Z,552.00
2024-03-12T03:41:04.461Z,553.00
2024-03-12T03:42:04.495Z,554.00
2024-03-12T03:43:04.673Z,555.00
2024-03-12T03:44:04.677Z,556.00
2024-03-12T03:45:04.715Z,556.00
2024-03-12T03:46:04.880Z,560.00
2024-03-12T03:47:04.861Z,561.00
2024-03-12T03:48:04.870Z,560.00
2024-03-12T03:49:05.233Z,560.00
2024-03-12T03:50:04.967Z,559.00
2024-03-12T03:51:05.048Z,560.00
2024-03-12T03:52:05.118Z,562.00
2024-03-12T03:53:05.162Z,563.00
2024-03-12T03:54:05.655Z,563.00
2024-03-12T03:55:05.419Z,562.00
2024-03-12T03:56:05.353Z,563.00
2024-03-12T03:57:05.388Z,562.00
2024-03-12T03:58:05.568Z,560.00
2024-03-12T03:59:05.700Z,563.00
2024-03-12T04:00:05.577Z,565.00
2024-03-12T04:01:05.728Z,562.00
2024-03-12T04:02:05.738Z,561.00
2024-03-12T04:03:05.779Z,557.00
2024-03-12T04:04:06.240Z,557.00
2024-03-12T04:05:05.864Z,559.00
2024-03-12T04:06:05.977Z,561.00
2024-03-12T04:07:06.071Z,559.00
2024-03-12T04:08:06.056Z,560.00
2024-03-12T04:09:06.234Z,559.00
2024-03-12T04:10:06.254Z,559.00
2024-03-12T04:11:06.267Z,559.00
2024-03-12T04:12:06.324Z,560.00
2024-03-12T04:13:06.431Z,559.00
2024-03-12T04:14:06.688Z,558.00
2024-03-12T04:15:06.478Z,558.00
2024-03-12T04:16:06.595Z,559.00
2024-03-12T04:17:06.653Z,559.00
2024-03-12T04:18:06.742Z,558.00
2024-03-12T04:19:07.245Z,557.00
2024-03-12T04:20:06.815Z,557.00
2024-03-12T04:21:06.882Z,557.00
2024-03-12T04:22:07.129Z,556.00
2024-03-12T04:23:06.978Z,558.00
2024-03-12T04:24:07.204Z,556.00
2024-03-12T04:25:07.178Z,557.00
2024-03-12T04:26:07.179Z,559.00
2024-03-12T04:27:07.199Z,559.00
2024-03-12T04:28:07.346Z,560.00
2024-03-12T04:29:07.701Z,561.00
2024-03-12T04:30:07.414Z,559.00
2024-03-12T04:31:07.531Z,557.00
2024-03-12T04:32:07.523Z,556.00
2024-03-12T04:33:07.628Z,554.00
2024-03-12T04:34:07.726Z,552.00
2024-03-12T04:35:07.731Z,553.00
2024-03-12T04:36:07.784Z,553.00
2024-03-12T04:37:07.954Z,553.00
2024-03-12T04:38:07.880Z,554.00
2024-03-12T04:39:08.203Z,553.00
2024-03-12T04:40:15.629Z,552.00
2024-03-12T04:41:15.418Z,557.00
2024-03-12T04:42:15.426Z,557.00
2024-03-12T04:43:15.488Z,559.00
2024-03-12T04:44:15.595Z,559.00
2024-03-12T04:45:15.573Z,561.00
2024-03-12T04:46:15.488Z,568.00
2024-03-12T04:47:15.456Z,568.00
2024-03-12T04:48:15.472Z,567.00
2024-03-12T04:49:15.621Z,567.00
2024-03-12T04:50:15.846Z,567.00
2024-03-12T04:51:15.686Z,561.00
2024-03-12T04:52:15.437Z,559.00
2024-03-12T04:53:15.460Z,557.00
2024-03-12T04:54:15.590Z,556.00
2024-03-12T04:55:15.636Z,559.00
2024-03-12T04:56:15.491Z,561.00
2024-03-12T04:57:15.480Z,560.00
2024-03-12T04:58:15.465Z,559.00
2024-03-12T04:59:15.595Z,560.00
2024-03-12T05:00:16.469Z,559.00
2024-03-12T05:01:15.593Z,560.00
2024-03-12T05:02:15.473Z,557.00
2024-03-12T05:03:15.528Z,559.00
2024-03-12T05:04:22.066Z,561.00
2024-03-12T05:05:16.595Z,561.00
2024-03-12T05:06:16.675Z,564.00
2024-03-12T05:07:15.754Z,564.00
2024-03-12T05:08:15.760Z,562.00
2024-03-12T05:09:15.771Z,561.00
2024-03-12T05:10:15.941Z,558.00
2024-03-12T05:11:15.963Z,558.00
2024-03-12T05:12:15.966Z,561.00
2024-03-12T05:13:16.082Z,562.00
2024-03-12T05:14:16.087Z,565.00
2024-03-12T05:15:16.155Z,566.00
2024-03-12T05:16:16.244Z,564.00
2024-03-12T05:17:16.296Z,563.00
2024-03-12T05:18:16.381Z,561.00
2024-03-12T05:19:16.483Z,560.00
2024-03-12T05:20:16.489Z,559.00
2024-03-12T05:21:16.517Z,558.00
2024-03-12T05:22:16.635Z,558.00
2024-03-12T05:23:16.673Z,556.00
2024-03-12T05:24:16.755Z,558.00
2024-03-12T05:25:16.789Z,557.00
2024-03-12T05:26:16.865Z,557.00
2024-03-12T05:27:16.900Z,558.00
2024-03-12T05:28:16.978Z,554.00
2024-03-12T05:29:17.038Z,556.00
2024-03-12T05:30:17.150Z,558.00
2024-03-12T05:31:17.197Z,559.00
2024-03-12T05:32:17.214Z,558.00
2024-03-12T05:33:17.428Z,556.00
2024-03-12T05:34:17.474Z,554.00
2024-03-12T05:35:17.398Z,551.00
2024-03-12T05:36:17.458Z,552.00
2024-03-12T05:37:17.676Z,554.00
2024-03-12T05:38:17.578Z,554.00
2024-03-12T05:39:17.676Z,556.00
2024-03-12T05:40:17.758Z,555.00
2024-03-12T05:41:17.806Z,554.00
2024-03-12T05:42:17.867Z,556.00
2024-03-12T05:43:17.976Z,555.00
2024-03-12T05:44:17.978Z,556.00
2024-03-12T05:45:18.033Z,555.00
2024-03-12T05:46:18.163Z,555.00
2024-03-12T05:47:18.154Z,554.00
2024-03-12T05:48:18.208Z,552.00
2024-03-12T05:49:18.657Z,553.00
2024-03-12T05:50:18.567Z,552.00
2024-03-12T05:51:18.380Z,555.00
2024-03-12T05:52:18.448Z,556.00
2024-03-12T05:53:18.516Z,559.00
2024-03-12T05:54:18.594Z,558.00
2024-03-12T05:55:18.702Z,560.00
2024-03-12T05:56:19.406Z,560.00
2024-03-12T05:57:18.775Z,559.00
2024-03-12T05:58:18.832Z,556.00
2024-03-12T05:59:19.096Z,556.00
2024-03-12T06:00:18.932Z,554.00
2024-03-12T06:01:19.107Z,554.00
2024-03-12T06:02:19.035Z,554.00
2024-03-12T06:03:19.120Z,551.00
2024-03-12T06:04:19.270Z,548.00
2024-03-12T06:05:19.241Z,548.00
2024-03-12T06:06:19.405Z,550.00
2024-03-12T06:07:21.197Z,549.00
2024-03-12T06:08:19.400Z,548.00
2024-03-12T06:09:19.460Z,550.00
2024-03-12T06:10:20.574Z,549.00
2024-03-12T06:11:19.621Z,548.00
2024-03-12T06:12:19.681Z,547.00
2024-03-12T06:13:19.752Z,548.00
2024-03-12T06:14:19.771Z,550.00
2024-03-12T06:15:19.883Z,550.00
2024-03-12T06:16:20.106Z,550.00
2024-03-12T06:17:19.977Z,550.00
2024-03-12T06:18:20.065Z,550.00
2024-03-12T06:19:20.857Z,549.00
2024-03-12T06:20:20.195Z,550.00
2024-03-12T06:21:20.259Z,549.00
2024-03-12T06:22:20.370Z,549.00
2024-03-12T06:23:20.391Z,547.00
2024-03-12T06:24:20.608Z,545.00
2024-03-12T06:25:20.571Z,545.00
2024-03-12T06:26:20.586Z,545.00
2024-03-12T06:27:20.628Z,546.00
2024-03-12T06:28:20.665Z,549.00
2024-03-12T06:29:21.108Z,547.00
2024-03-12T06:30:20.823Z,547.00
2024-03-12T06:31:21.038Z,548.00
2024-03-12T06:32:20.952Z,547.00
2024-03-12T06:33:21.093Z,549.00
2024-03-12T06:34:21.174Z,546.00
2024-03-12T06:35:21.108Z,546.00
2024-03-12T06:36:21.234Z,546.00
2024-03-12T06:37:21.275Z,548.00
2024-03-12T06:38:21.382Z,550.00
2024-03-12T06:39:21.651Z,553.00
2024-03-12T06:40:21.555Z,552.00
2024-03-12T06:41:21.492Z,553.00
2024-03-12T06:42:21.575Z,552.00
2024-03-12T06:43:21.720Z,552.00
2024-03-12T06:44:22.122Z,553.00
2024-03-12T06:45:21.766Z,553.00
2024-03-12T06:46:21.923Z,551.00
2024-03-12T06:47:21.892Z,549.00
2024-03-12T06:48:21.958Z,625.00
2024-03-12T06:49:22.082Z,656.00
2024-03-12T06:50:22.054Z,628.00
2024-03-12T06:51:22.163Z,625.00
2024-03-12T06:52:22.200Z,739.00
2024-03-12T06:53:22.292Z,737.00
2024-03-12T06:54:22.603Z,739.00
2024-03-12T06:55:22.461Z,750.00
2024-03-12T06:56:22.475Z,816.00
2024-03-12T06:57:22.514Z,889.00
2024-03-12T06:58:22.671Z,902.00
2024-03-12T06:59:23.114Z,916.00
2024-03-12T07:00:22.669Z,953.00
2024-03-12T07:01:22.786Z,1030.00
2024-03-12T07:02:22.747Z,1062.00
2024-03-12T07:03:23.021Z,1140.00
2024-03-12T07:04:23.228Z,1138.00
2024-03-12T07:05:22.872Z,1144.00
2024-03-12T07:06:22.962Z,1291.00
2024-03-12T07:07:22.943Z,1119.00
2024-03-12T07:08:23.040Z,1109.00
2024-03-12T07:09:23.112Z,1164.00
2024-03-12T07:10:23.080Z,1241.00
2024-03-12T07:11:23.104Z,1218.00
2024-03-12T07:12:23.095Z,1175.00
2024-03-12T07:13:23.102Z,1164.00
2024-03-12T07:14:23.606Z,1173.00
2024-03-12T07:15:23.148Z,1157.00
2024-03-12T07:16:23.252Z,1203.00
2024-03-12T07:17:23.360Z,1312.00
2024-03-12T07:18:23.265Z,1255.00
2024-03-12T07:19:23.648Z,1228.00
2024-03-12T07:20:23.295Z,1151.00
2024-03-12T07:21:23.317Z,1436.00
2024-03-12T07:22:23.376Z,1138.00
2024-03-12T07:23:23.337Z,1150.00
2024-03-12T07:24:23.641Z,1243.00
2024-03-12T07:25:23.430Z,1230.00
2024-03-12T07:26:23.425Z,1235.00
2024-03-12T07:27:23.430Z,1232.00
2024-03-12T07:28:25.032Z,1237.00
2024-03-12T07:29:23.637Z,1250.00
2024-03-12T07:30:23.472Z,1269.00
2024-03-12T07:31:23.508Z,1383.00
2024-03-12T07:32:23.477Z,1300.00
2024-03-12T07:33:23.476Z,1389.00
2024-03-12T07:34:23.623Z,1348.00
2024-03-12T07:35:23.520Z,1321.00
2024-03-12T07:36:23.511Z,1320.00
2024-03-12T07:37:23.541Z,1323.00
2024-03-12T07:38:23.519Z,1417.00
2024-03-12T07:39:23.605Z,1404.00
2024-03-12T07:40:23.602Z,1266.00
2024-03-12T07:41:23.563Z,1311.00
2024-03-12T07:42:23.608Z,1320.00
2024-03-12T07:43:23.676Z,1310.00
2024-03-12T07:44:24.129Z,1297.00
2024-03-12T07:45:23.686Z,1313.00
2024-03-12T07:46:23.867Z,1348.00
2024-03-12T07:47:23.755Z,1352.00
2024-03-12T07:48:23.880Z,1332.00
2024-03-12T07:49:24.170Z,1224.00
2024-03-12T07:50:23.891Z,1226.00
2024-03-12T07:51:23.955Z,1285.00
2024-03-12T07:52:24.032Z,1304.00
2024-03-12T07:53:24.076Z,1414.00
2024-03-12T07:54:25.052Z,1417.00
2024-03-12T07:55:24.073Z,1418.00
2024-03-12T07:56:24.061Z,1456.00
2024-03-12T07:57:24.038Z,1095.00
2024-03-12T07:58:24.118Z,995.00
2024-03-12T07:59:24.060Z,854.00
2024-03-12T08:00:24.082Z,798.00
2024-03-12T08:01:24.166Z,738.00
2024-03-12T08:02:24.098Z,722.00
2024-03-12T08:03:24.076Z,695.00
2024-03-12T08:04:24.208Z,697.00
2024-03-12T08:05:24.074Z,685.00
2024-03-12T08:06:24.641Z,681.00
2024-03-12T08:07:24.152Z,677.00
2024-03-12T08:08:24.145Z,668.00
2024-03-12T08:09:24.672Z,659.00
2024-03-12T08:10:24.384Z,665.00
2024-03-12T08:11:24.412Z,647.00
2024-03-12T08:12:24.412Z,643.00
2024-03-12T08:13:24.511Z,653.00
2024-03-12T08:14:24.558Z,701.00
2024-03-12T08:15:24.700Z,698.00
2024-03-12T08:16:24.710Z,703.00
2024-03-12T08:17:24.740Z,781.00
2024-03-12T08:18:24.870Z,712.00
2024-03-12T08:19:25.269Z,721.00
2024-03-12T08:20:24.916Z,729.00
2024-03-12T08:21:24.947Z,721.00
2024-03-12T08:22:25.042Z,714.00
2024-03-12T08:23:25.089Z,716.00
2024-03-12T08:24:25.144Z,716.00
2024-03-12T08:25:25.233Z,785.00
2024-03-12T08:26:25.196Z,776.00
2024-03-12T08:27:25.195Z,773.00
2024-03-12T08:28:25.285Z,759.00
2024-03-12T08:29:25.301Z,686.00
2024-03-12T08:30:25.396Z,685.00
2024-03-12T08:31:32.761Z,707.00
2024-03-12T08:32:26.782Z,710.00
2024-03-12T08:33:25.569Z,822.00
2024-03-12T08:34:25.594Z,732.00
2024-03-12T08:35:25.513Z,714.00
2024-03-12T08:36:25.472Z,806.00
2024-03-12T08:37:25.475Z,792.00
2024-03-12T08:38:25.510Z,818.00
2024-03-12T08:39:25.512Z,949.00
2024-03-12T08:40:25.570Z,953.00
2024-03-12T08:41:25.491Z,965.00
2024-03-12T08:42:25.471Z,1022.00
2024-03-12T08:43:26.114Z,1066.00
2024-03-12T08:44:25.631Z,1299.00
2024-03-12T08:45:25.589Z,1231.00
2024-03-12T08:46:25.655Z,1209.00
2024-03-12T08:47:25.852Z,1221.00
2024-03-12T08:48:25.752Z,1229.00
2024-03-12T08:49:26.157Z,1266.00
2024-03-12T08:50:25.887Z,1283.00
2024-03-12T08:51:25.964Z,1583.00
2024-03-12T08:52:26.008Z,1395.00
2024-03-12T08:53:25.982Z,1412.00
2024-03-12T08:54:26.621Z,1447.00
2024-03-12T08:55:26.092Z,1561.00
2024-03-12T08:56:26.055Z,1595.00
2024-03-12T08:57:26.120Z,1775.00
2024-03-12T08:58:26.099Z,1755.00
2024-03-12T08:59:26.150Z,1764.00
2024-03-12T09:00:26.136Z,1812.00
2024-03-12T09:01:26.269Z,1802.00
2024-03-12T09:02:26.130Z,1858.00
2024-03-12T09:03:26.218Z,1851.00
2024-03-12T09:04:26.667Z,1876.00
2024-03-12T09:05:26.325Z,1968.00
2024-03-12T09:06:26.397Z,2003.00
2024-03-12T09:07:26.447Z,2217.00
2024-03-12T09:08:26.522Z,2290.00
2024-03-12T09:09:26.649Z,2132.00
2024-03-12T09:10:26.776Z,2208.00
2024-03-12T09:11:26.806Z,2262.00
2024-03-12T09:12:26.750Z,2240.00
2024-03-12T09:13:26.799Z,2375.00
2024-03-12T09:14:27.191Z,2436.00
2024-03-12T09:15:26.878Z,2376.00
2024-03-12T09:16:26.914Z,2311.00
2024-03-12T09:17:28.019Z,2355.00
2024-03-12T09:18:27.723Z,2351.00
2024-03-12T09:19:27.143Z,2370.00
2024-03-12T09:20:26.959Z,2399.00
2024-03-12T09:21:26.907Z,2511.00
2024-03-12T09:22:26.951Z,2543.00
2024-03-12T09:23:26.961Z,2713.00
2024-03-12T09:24:27.154Z,2666.00
2024-03-12T09:25:26.962Z,2645.00
2024-03-12T09:26:26.959Z,2639.00
2024-03-12T09:27:26.931Z,2696.00
2024-03-12T09:28:26.949Z,2694.00
2024-03-12T09:29:26.957Z,2742.00
2024-03-12T09:30:26.950Z,2770.00
2024-03-12T09:31:26.986Z,2782.00
2024-03-12T09:32:26.937Z,2863.00
2024-03-12T09:33:26.973Z,2874.00
2024-03-12T09:34:27.184Z,2883.00
2024-03-12T09:35:26.979Z,2894.00
2024-03-12T09:36:26.955Z,2935.00
2024-03-12T09:37:26.989Z,3002.00
2024-03-12T09:38:26.987Z,3055.00
2024-03-12T09:39:27.149Z,3095.00
2024-03-12T09:40:27.037Z,3110.00
2024-03-12T09:41:27.069Z,3283.00
2024-03-12T09:42:26.993Z,3251.00
2024-03-12T09:43:26.986Z,2938.00
2024-03-12T09:44:27.145Z,2734.00
2024-03-12T09:45:26.965Z,2983.00
2024-03-12T09:46:26.975Z,2731.00
2024-03-12T09:47:27.038Z,2732.00
2024-03-12T09:48:26.983Z,2647.00
2024-03-12T09:49:27.196Z,2680.00
2024-03-12T09:50:26.988Z,2665.00
2024-03-12T09:51:26.994Z,2643.00
2024-03-12T09:52:27.045Z,2584.00
2024-03-12T09:53:27.006Z,2520.00
2024-03-12T09:54:27.091Z,2223.00
2024-03-12T09:55:27.104Z,2175.00
2024-03-12T09:56:27.163Z,2213.00
2024-03-12T09:57:27.204Z,2180.00
2024-03-12T09:58:28.221Z,2197.00
2024-03-12T09:59:27.668Z,2169.00
2024-03-12T10:00:27.244Z,2170.00
2024-03-12T10:01:27.224Z,2168.00
2024-03-12T10:02:27.223Z,1659.00
2024-03-12T10:03:27.197Z,1639.00
2024-03-12T10:04:27.681Z,1479.00
2024-03-12T10:05:27.212Z,1405.00
2024-03-12T10:06:27.229Z,1341.00
2024-03-12T10:07:27.215Z,1337.00
2024-03-12T10:08:27.214Z,1221.00
2024-03-12T10:09:27.762Z,1178.00
2024-03-12T10:10:27.240Z,1119.00
2024-03-12T10:11:27.276Z,1119.00
2024-03-12T10:12:27.235Z,1480.00
2024-03-12T10:13:27.257Z,1339.00
2024-03-12T10:14:27.266Z,1446.00
2024-03-12T10:15:27.231Z,1478.00
2024-03-12T10:16:27.210Z,1453.00
2024-03-12T10:17:27.309Z,1539.00
2024-03-12T10:18:27.221Z,1545.00
2024-03-12T10:19:27.253Z,1543.00
2024-03-12T10:20:27.260Z,1539.00
2024-03-12T10:21:27.320Z,1542.00
2024-03-12T10:22:27.299Z,1534.00
2024-03-12T10:23:27.422Z,1530.00
2024-03-12T10:24:27.373Z,1525.00
2024-03-12T10:25:27.431Z,1505.00
2024-03-12T10:26:27.463Z,1498.00
2024-03-12T10:27:27.492Z,1494.00
2024-03-12T10:28:27.610Z,1493.00
2024-03-12T10:29:27.714Z,1491.00
2024-03-12T10:30:27.595Z,1496.00
2024-03-12T10:31:27.640Z,1503.00
2024-03-12T10:32:27.667Z,1506.00
2024-03-12T10:33:27.752Z,1510.00
2024-03-12T10:34:28.198Z,1508.00
2024-03-12T10:35:27.827Z,1507.00
2024-03-12T10:36:27.859Z,1508.00
2024-03-12T10:37:27.879Z,1511.00
2024-03-12T10:38:27.969Z,1515.00
2024-03-12T10:39:28.204Z,1515.00
2024-03-12T10:40:28.132Z,1519.00
2024-03-12T10:41:28.243Z,1526.00
2024-03-12T10:42:28.225Z,1535.00
2024-03-12T10:43:28.314Z,1566.00
2024-03-12T10:44:28.405Z,1580.00
2024-03-12T10:45:28.461Z,1588.00
2024-03-12T10:46:28.496Z,1622.00
2024-03-12T10:47:28.522Z,1663.00
2024-03-12T10:48:28.575Z,1671.00
2024-03-12T10:49:28.692Z,1642.00
2024-03-12T10:50:28.713Z,1702.00
2024-03-12T10:51:28.764Z,1749.00
2024-03-12T10:52:28.841Z,1585.00
2024-03-12T10:53:31.982Z,1526.00
2024-03-12T10:54:30.679Z,1475.00
2024-03-12T10:55:28.911Z,1310.00
2024-03-12T10:56:28.888Z,1305.00
2024-03-12T10:57:28.915Z,1229.00
2024-03-12T10:58:28.935Z,1190.00
2024-03-12T10:59:28.920Z,1177.00
2024-03-12T11:00:28.897Z,1163.00
2024-03-12T11:01:28.982Z,1125.00
2024-03-12T11:02:28.931Z,1112.00
2024-03-12T11:03:28.909Z,1096.00
2024-03-12T11:04:29.210Z,1086.00
2024-03-12T11:05:28.965Z,1075.00
2024-03-12T11:06:28.926Z,1060.00
2024-03-12T11:07:28.910Z,1053.00
2024-03-12T11:08:28.954Z,1043.00
2024-03-12T11:09:29.277Z,1032.00
2024-03-12T11:10:29.159Z,969.00
2024-03-12T11:11:28.932Z,957.00
2024-03-12T11:12:28.952Z,947.00
2024-03-12T11:13:28.939Z,922.00
2024-03-12T11:14:29.231Z,890.00
2024-03-12T11:15:28.929Z,869.00
2024-03-12T11:16:29.702Z,857.00
2024-03-12T11:17:29.113Z,850.00
2024-03-12T11:18:28.911Z,840.00
2024-03-12T11:19:28.991Z,828.00
2024-03-12T11:20:29.148Z,813.00
2024-03-12T11:21:28.929Z,796.00
2024-03-12T11:22:28.922Z,783.00
2024-03-12T11:23:28.974Z,774.00
2024-03-12T11:24:29.204Z,767.00
2024-03-12T11:25:28.934Z,763.00
2024-03-12T11:27:28.938Z,770.00
2024-03-12T11:28:28.928Z,775.00
2024-03-12T11:29:28.976Z,778.00
2024-03-12T11:30:28.953Z,780.00
2024-03-12T11:31:28.936Z,777.00
2024-03-12T11:32:28.987Z,771.00
2024-03-12T11:33:28.945Z,762.00
2024-03-12T11:34:29.212Z,758.00
2024-03-12T11:35:28.942Z,755.00
2024-03-12T11:36:28.994Z,754.00
2024-03-12T11:37:28.961Z,753.00
2024-03-12T11:38:28.970Z,750.00
2024-03-12T11:39:29.004Z,748.00
2024-03-12T11:40:29.032Z,744.00
2024-03-12T11:41:28.960Z,741.00
2024-03-12T11:42:28.971Z,740.00
2024-03-12T11:43:28.978Z,740.00
2024-03-12T11:44:28.981Z,738.00
2024-03-12T11:45:28.979Z,738.00
2024-03-12T11:46:28.993Z,739.00
2024-03-12T11:47:28.966Z,742.00
2024-03-12T11:48:28.964Z,741.00
2024-03-12T11:49:28.984Z,742.00
2024-03-12T11:50:29.214Z,741.00
2024-03-12T11:51:28.995Z,743.00
2024-03-12T11:52:29.010Z,745.00
2024-03-12T11:53:28.980Z,748.00
2024-03-12T11:54:28.966Z,754.00
2024-03-12T11:55:29.199Z,764.00
2024-03-12T11:56:28.986Z,778.00
2024-03-12T11:57:28.986Z,785.00
2024-03-12T11:58:29.007Z,792.00
2024-03-12T11:59:28.988Z,810.00
2024-03-12T12:00:29.225Z,820.00
2024-03-12T12:01:29.047Z,839.00
2024-03-12T12:02:29.012Z,849.00
2024-03-12T12:03:28.990Z,855.00
2024-03-12T12:04:29.008Z,862.00
2024-03-12T12:05:29.036Z,864.00
2024-03-12T12:06:28.989Z,870.00
2024-03-12T12:07:29.252Z,877.00
2024-03-12T12:08:29.018Z,884.00
2024-03-12T12:09:29.027Z,882.00
2024-03-12T12:10:29.254Z,880.00
2024-03-12T12:11:29.065Z,879.00
2024-03-12T12:12:28.985Z,878.00
2024-03-12T12:13:29.022Z,878.00
2024-03-12T12:14:29.069Z,878.00
2024-03-12T12:15:29.013Z,875.00
2024-03-12T12:16:29.011Z,872.00
2024-03-12T12:17:29.016Z,868.00
2024-03-12T12:18:29.024Z,864.00
2024-03-12T12:20:29.041Z,851.00
2024-03-12T12:21:29.054Z,846.00
2024-03-12T12:22:29.074Z,842.00
2024-03-12T12:23:29.048Z,834.00
2024-03-12T12:24:29.008Z,829.00
2024-03-12T12:25:29.203Z,824.00